createdAt,value
2018-09-14T00:00:05.090Z,90.96
2018-09-14T00:02:34.183Z,90.45
2018-09-14T00:05:03.214Z,90.05
2018-09-14T00:07:32.209Z,90.55
2018-09-14T00:10:01.273Z,90.21
2018-09-14T00:12:30.409Z,90.44
2018-09-14T00:14:59.426Z,90.59
2018-09-14T00:17:28.435Z,90.57
2018-09-14T00:19:57.433Z,90.47
2018-09-14T00:22:26.438Z,90.48
2018-09-14T00:24:55.437Z,90.49
2018-09-14T00:27:24.457Z,90.73
2018-09-14T00:29:53.465Z,90.60
2018-09-14T00:32:22.448Z,90.85
2018-09-14T00:34:51.446Z,90.50
2018-09-14T00:37:20.433Z,90.93
2018-09-14T00:39:49.434Z,90.80
2018-09-14T00:42:18.435Z,90.77
2018-09-14T00:44:47.422Z,90.62
2018-09-14T00:47:16.402Z,90.80
2018-09-14T00:49:45.452Z,90.64
2018-09-14T00:52:14.448Z,90.57
2018-09-14T00:54:43.455Z,90.50
2018-09-14T00:57:12.451Z,90.52
2018-09-14T00:59:41.438Z,90.58
2018-09-14T01:02:10.438Z,90.57
2018-09-14T01:04:39.426Z,90.41
2018-09-14T01:07:08.435Z,90.51
2018-09-14T01:09:37.436Z,89.99
2018-09-14T01:12:06.453Z,90.13
2018-09-14T01:14:35.434Z,90.06
2018-09-14T01:17:04.561Z,89.97
2018-09-14T01:19:33.502Z,89.95
2018-09-14T01:22:02.575Z,89.67
2018-09-14T01:24:31.647Z,90.10
2018-09-14T01:27:00.650Z,89.87
2018-09-14T01:29:29.623Z,90.55
2018-09-14T01:31:58.900Z,90.08
2018-09-14T01:34:27.898Z,90.35
2018-09-14T01:36:56.959Z,90.41
2018-09-14T01:39:25.954Z,90.01
2018-09-14T01:41:54.942Z,90.08
2018-09-14T01:44:23.966Z,90.43
2018-09-14T01:46:52.960Z,90.06
2018-09-14T01:49:21.935Z,90.13
2018-09-14T01:51:51.446Z,90.09
2018-09-14T01:54:20.430Z,90.12
2018-09-14T01:56:49.446Z,90.23
2018-09-14T01:59:18.434Z,90.26
2018-09-14T02:01:47.437Z,89.96
2018-09-14T02:04:16.459Z,90.16
2018-09-14T02:06:45.459Z,90.33
2018-09-14T02:09:14.463Z,90.46
2018-09-14T02:11:43.478Z,90.11
2018-09-14T02:14:12.471Z,89.80
2018-09-14T02:16:41.471Z,89.53
2018-09-14T02:19:10.458Z,89.88
2018-09-14T02:21:39.476Z,89.83
2018-09-14T02:24:08.551Z,89.68
2018-09-14T02:26:37.562Z,89.67
2018-09-14T02:29:06.554Z,89.78
2018-09-14T02:31:36.130Z,90.11
2018-09-14T02:34:05.782Z,89.85
2018-09-14T02:36:34.745Z,89.91
2018-09-14T02:39:04.467Z,90.11
2018-09-14T02:41:33.454Z,89.72
2018-09-14T02:44:02.459Z,89.97
2018-09-14T02:46:31.438Z,89.43
2018-09-14T02:49:00.426Z,89.50
2018-09-14T02:51:29.417Z,89.68
2018-09-14T02:53:58.418Z,89.76
2018-09-14T02:56:27.399Z,89.23
2018-09-14T02:58:56.467Z,88.80
2018-09-14T03:01:25.455Z,89.04
2018-09-14T03:03:54.509Z,88.94
2018-09-14T03:06:23.497Z,88.14
2018-09-14T03:08:52.498Z,88.98
2018-09-14T03:11:21.492Z,88.78
2018-09-14T03:13:50.505Z,89.04
2018-09-14T03:16:19.507Z,88.31
2018-09-14T03:18:48.506Z,88.49
2018-09-14T03:21:17.590Z,89.13
2018-09-14T03:23:46.533Z,89.27
2018-09-14T03:26:15.742Z,89.30
2018-09-14T03:28:44.734Z,89.60
2018-09-14T03:31:13.830Z,89.41
2018-09-14T03:33:42.786Z,89.26
2018-09-14T03:36:11.901Z,89.34
2018-09-14T03:38:40.906Z,89.41
2018-09-14T03:41:09.884Z,89.55
2018-09-14T03:43:39.038Z,89.41
2018-09-14T03:46:08.023Z,89.63
2018-09-14T03:48:37.083Z,89.42
2018-09-14T03:51:06.276Z,89.44
2018-09-14T03:53:35.306Z,89.60
2018-09-14T03:56:04.295Z,89.66
2018-09-14T03:58:33.298Z,89.50
2018-09-14T04:01:02.320Z,89.75
2018-09-14T04:03:31.342Z,89.90
2018-09-14T04:06:00.387Z,90.05
2018-09-14T04:08:29.385Z,89.52
2018-09-14T04:10:58.370Z,89.29
2018-09-14T04:13:27.362Z,89.87
2018-09-14T04:15:56.362Z,89.61
2018-09-14T04:18:25.342Z,89.73
2018-09-14T04:20:54.410Z,89.77
2018-09-14T04:23:23.443Z,89.77
2018-09-14T04:25:52.382Z,89.57
2018-09-14T04:28:21.365Z,89.26
2018-09-14T04:30:50.592Z,89.05
2018-09-14T04:33:19.578Z,89.47
2018-09-14T04:35:48.584Z,89.55
2018-09-14T04:38:17.601Z,89.53
2018-09-14T04:40:46.559Z,89.73
2018-09-14T04:43:15.541Z,89.69
2018-09-14T04:45:44.555Z,89.44
2018-09-14T04:48:13.560Z,89.50
2018-09-14T04:50:42.549Z,89.27
2018-09-14T04:53:11.544Z,89.48
2018-09-14T04:55:40.537Z,89.66
2018-09-14T04:58:09.518Z,89.16
2018-09-14T05:00:38.571Z,89.52
2018-09-14T05:03:07.627Z,89.85
2018-09-14T05:05:36.878Z,89.87
2018-09-14T05:08:05.868Z,89.61
2018-09-14T05:10:34.815Z,89.89
2018-09-14T05:13:03.787Z,90.08
2018-09-14T05:15:32.774Z,89.57
2018-09-14T05:18:03.302Z,89.33
2018-09-14T05:20:32.603Z,89.29
2018-09-14T05:23:01.767Z,89.13
2018-09-14T05:25:31.050Z,89.23
2018-09-14T05:28:00.039Z,89.10
2018-09-14T05:30:29.032Z,89.00
2018-09-14T05:32:58.020Z,88.99
2018-09-14T05:35:27.008Z,88.85
2018-09-14T05:37:55.990Z,89.27
2018-09-14T05:40:24.987Z,89.40
2018-09-14T05:42:53.982Z,89.08
2018-09-14T05:45:22.977Z,91.88
2018-09-14T05:47:51.991Z,90.08
2018-09-14T05:50:20.990Z,87.94
2018-09-14T05:52:49.974Z,87.60
2018-09-14T05:55:19.042Z,87.95
2018-09-14T05:57:48.033Z,87.77
2018-09-14T06:00:17.031Z,88.30
2018-09-14T06:02:46.024Z,88.29
2018-09-14T06:05:15.014Z,88.19
2018-09-14T06:07:43.995Z,88.24
2018-09-14T06:10:13.191Z,88.08
2018-09-14T06:12:42.180Z,86.26
2018-09-14T06:15:11.177Z,85.97
2018-09-14T06:17:40.178Z,86.59
2018-09-14T06:20:09.162Z,87.21
2018-09-14T06:22:38.169Z,87.37
2018-09-14T06:25:07.243Z,87.16
2018-09-14T06:27:36.395Z,87.14
2018-09-14T06:30:05.383Z,86.90
2018-09-14T06:32:34.399Z,86.66
2018-09-14T06:35:03.384Z,86.89
2018-09-14T06:37:32.383Z,86.98
2018-09-14T06:40:01.371Z,86.36
2018-09-14T06:42:30.375Z,85.24
2018-09-14T06:44:59.470Z,84.04
2018-09-14T06:47:28.362Z,83.83
2018-09-14T06:49:57.598Z,82.75
2018-09-14T06:52:26.595Z,82.34
2018-09-14T06:54:55.594Z,81.95
2018-09-14T06:57:24.720Z,81.65
2018-09-14T06:59:53.702Z,80.42
2018-09-14T07:02:22.724Z,81.06
2018-09-14T07:04:51.764Z,80.29
2018-09-14T07:07:20.739Z,79.63
2018-09-14T07:09:49.749Z,80.23
2018-09-14T07:12:18.734Z,79.85
2018-09-14T07:14:47.751Z,79.01
2018-09-14T07:17:16.746Z,78.98
2018-09-14T07:19:45.747Z,79.04
2018-09-14T07:22:15.015Z,77.52
2018-09-14T07:24:44.038Z,77.41
2018-09-14T07:27:13.014Z,79.08
2018-09-14T07:29:41.973Z,78.37
2018-09-14T07:32:11.114Z,78.06
2018-09-14T07:34:40.055Z,78.22
2018-09-14T07:37:09.139Z,78.08
2018-09-14T07:39:38.143Z,77.19
2018-09-14T07:42:07.159Z,77.82
2018-09-14T07:44:36.158Z,77.98
2018-09-14T07:47:05.478Z,77.73
2018-09-14T07:49:34.426Z,77.21
2018-09-14T07:52:03.464Z,77.08
2018-09-14T07:54:32.458Z,79.20
2018-09-14T07:57:01.422Z,78.60
2018-09-14T07:59:30.415Z,79.07
2018-09-14T08:01:59.441Z,77.82
2018-09-14T08:04:28.537Z,76.43
2018-09-14T08:06:57.530Z,76.59
2018-09-14T08:09:26.527Z,75.83
2018-09-14T08:11:56.488Z,75.47
2018-09-14T08:14:25.648Z,74.24
2018-09-14T08:16:54.590Z,75.41
2018-09-14T08:19:23.566Z,73.48
2018-09-14T08:21:52.755Z,72.52
2018-09-14T08:24:21.602Z,72.00
2018-09-14T08:26:50.663Z,71.66
2018-09-14T08:29:19.582Z,71.05
2018-09-14T08:31:48.770Z,69.78
2018-09-14T08:34:17.796Z,71.10
2018-09-14T08:36:46.892Z,70.45
2018-09-14T08:39:15.888Z,72.68
2018-09-14T08:41:44.846Z,72.26
2018-09-14T08:44:13.830Z,70.00
2018-09-14T08:46:42.911Z,70.08
2018-09-14T08:49:11.967Z,70.20
2018-09-14T08:51:40.958Z,68.43
2018-09-14T08:54:09.897Z,68.66
2018-09-14T08:56:38.894Z,70.04
2018-09-14T08:59:07.872Z,70.05
2018-09-14T09:01:36.878Z,70.94
2018-09-14T09:04:05.868Z,69.93
2018-09-14T09:06:34.854Z,70.35
2018-09-14T09:09:04.010Z,70.15
2018-09-14T09:11:33.019Z,68.34
2018-09-14T09:14:02.007Z,69.76
2018-09-14T09:16:30.987Z,69.03
2018-09-14T09:18:59.986Z,68.53
2018-09-14T09:21:28.983Z,69.57
2018-09-14T09:23:58.392Z,67.24
2018-09-14T09:26:27.442Z,66.76
2018-09-14T09:28:56.326Z,67.85
2018-09-14T09:31:25.477Z,67.23
2018-09-14T09:33:54.662Z,67.22
2018-09-14T09:36:23.658Z,67.14
2018-09-14T09:38:52.636Z,67.88
2018-09-14T09:41:21.621Z,67.89
2018-09-14T09:43:50.657Z,67.60
2018-09-14T09:46:19.645Z,68.62
2018-09-14T09:48:48.641Z,68.37
2018-09-14T09:51:17.731Z,67.05
2018-09-14T09:53:46.626Z,66.72
2018-09-14T09:56:15.619Z,66.79
2018-09-14T09:58:44.758Z,66.48
2018-09-14T10:01:19.132Z,65.60
2018-09-14T10:03:53.517Z,67.35
2018-09-14T10:06:25.118Z,66.24
2018-09-14T10:08:54.874Z,66.43
2018-09-14T10:11:23.994Z,66.94
2018-09-14T10:13:53.335Z,64.91
2018-09-14T10:16:22.380Z,64.58
2018-09-14T10:18:51.373Z,65.91
2018-09-14T10:21:20.492Z,65.29
2018-09-14T10:23:49.350Z,65.55
2018-09-14T10:26:18.443Z,62.37
2018-09-14T10:28:47.493Z,61.18
2018-09-14T10:31:16.462Z,61.02
2018-09-14T10:33:45.583Z,62.21
2018-09-14T10:36:14.515Z,62.99
2018-09-14T10:38:43.509Z,62.17
2018-09-14T10:41:12.500Z,61.76
2018-09-14T10:43:41.559Z,61.62
2018-09-14T10:46:10.552Z,59.66
2018-09-14T10:48:39.526Z,61.59
2018-09-14T10:51:08.563Z,62.25
2018-09-14T10:53:37.558Z,61.05
2018-09-14T10:56:06.618Z,62.72
2018-09-14T10:58:41.159Z,59.31
2018-09-14T11:01:10.917Z,59.96
2018-09-14T11:03:39.958Z,59.22
2018-09-14T11:06:08.908Z,58.62
2018-09-14T11:08:37.891Z,60.12
2018-09-14T11:11:06.939Z,58.78
2018-09-14T11:13:36.030Z,59.04
2018-09-14T11:16:04.961Z,59.24
2018-09-14T11:18:34.020Z,57.82
2018-09-14T11:21:02.930Z,57.07
2018-09-14T11:23:31.931Z,55.98
2018-09-14T11:26:00.990Z,57.77
2018-09-14T11:28:29.982Z,57.78
2018-09-14T11:30:58.962Z,55.92
2018-09-14T11:33:28.029Z,55.73
2018-09-14T11:35:57.006Z,55.03
2018-09-14T11:38:26.076Z,55.19
2018-09-14T11:40:55.077Z,54.41
2018-09-14T11:43:24.042Z,53.75
2018-09-14T11:45:53.068Z,54.04
2018-09-14T11:48:22.029Z,54.08
2018-09-14T11:50:51.053Z,51.75
2018-09-14T11:53:19.996Z,51.36
2018-09-14T11:55:48.967Z,53.77
2018-09-14T11:58:18.022Z,52.70
2018-09-14T12:00:48.067Z,54.12
2018-09-14T12:03:17.050Z,53.78
2018-09-14T12:05:46.055Z,53.04
2018-09-14T12:08:15.035Z,53.52
2018-09-14T12:10:44.015Z,53.89
2018-09-14T12:13:13.164Z,54.11
2018-09-14T12:15:42.179Z,53.76
2018-09-14T12:18:11.243Z,53.54
2018-09-14T12:20:40.222Z,51.97
2018-09-14T12:23:09.213Z,52.23
2018-09-14T12:25:38.850Z,51.79
2018-09-14T12:28:08.751Z,50.26
2018-09-14T12:30:37.927Z,51.70
2018-09-14T12:33:07.458Z,52.00
2018-09-14T12:35:36.509Z,52.11
2018-09-14T12:38:05.604Z,51.16
2018-09-14T12:40:34.570Z,52.87
2018-09-14T12:43:03.635Z,54.25
2018-09-14T12:45:32.671Z,54.30
2018-09-14T12:48:01.983Z,54.80
2018-09-14T12:50:30.914Z,54.58
2018-09-14T12:53:00.018Z,55.77
2018-09-14T12:55:29.057Z,56.23
2018-09-14T12:57:58.047Z,57.33
2018-09-14T13:00:27.054Z,55.74
2018-09-14T13:02:56.037Z,54.98
2018-09-14T13:05:25.026Z,55.05
2018-09-14T13:07:54.011Z,54.39
2018-09-14T13:10:23.071Z,53.84
2018-09-14T13:12:52.071Z,54.26
2018-09-14T13:15:21.054Z,54.17
2018-09-14T13:17:50.061Z,55.68
2018-09-14T13:20:19.056Z,56.33
2018-09-14T13:22:48.954Z,55.09
2018-09-14T13:25:17.971Z,54.97
2018-09-14T13:27:46.991Z,54.91
2018-09-14T13:30:16.061Z,54.55
2018-09-14T13:32:49.218Z,55.73
2018-09-14T13:35:18.328Z,55.29
2018-09-14T13:37:47.422Z,56.52
2018-09-14T13:40:16.366Z,56.70
2018-09-14T13:42:45.591Z,56.46
2018-09-14T13:45:14.630Z,55.01
2018-09-14T13:47:43.606Z,56.40
2018-09-14T13:50:12.616Z,54.54
2018-09-14T13:52:41.722Z,54.40
2018-09-14T13:55:10.683Z,53.76
2018-09-14T13:57:39.785Z,52.07
2018-09-14T14:00:08.734Z,51.52
2018-09-14T14:02:37.771Z,49.56
2018-09-14T14:05:06.783Z,49.32
2018-09-14T14:07:35.775Z,50.71
2018-09-14T14:10:04.756Z,50.68
2018-09-14T14:12:33.751Z,49.41
2018-09-14T14:15:02.736Z,48.73
2018-09-14T14:17:31.777Z,49.07
2018-09-14T14:20:00.716Z,51.32
2018-09-14T14:22:29.746Z,52.13
2018-09-14T14:24:58.747Z,51.96
2018-09-14T14:27:27.754Z,52.29
2018-09-14T14:29:56.747Z,52.40
2018-09-14T14:32:25.734Z,52.61
2018-09-14T14:34:54.926Z,52.69
2018-09-14T14:37:24.003Z,52.55
2018-09-14T14:39:53.010Z,53.62
2018-09-14T14:42:22.028Z,53.89
2018-09-14T14:44:50.993Z,53.80
2018-09-14T14:47:20.008Z,54.95
2018-09-14T14:49:48.951Z,53.96
2018-09-14T14:52:17.962Z,55.06
2018-09-14T14:54:47.165Z,55.24
2018-09-14T14:57:16.178Z,53.90
2018-09-14T14:59:45.192Z,53.12
2018-09-14T15:02:14.141Z,53.93
2018-09-14T15:04:43.116Z,52.27
2018-09-14T15:07:12.110Z,52.69
2018-09-14T15:09:41.096Z,54.38
2018-09-14T15:12:10.142Z,53.15
2018-09-14T15:14:39.122Z,53.36
2018-09-14T15:17:08.107Z,54.44
2018-09-14T15:19:37.079Z,53.47
2018-09-14T15:22:06.087Z,53.96
2018-09-14T15:24:41.786Z,53.12
2018-09-14T15:27:10.770Z,52.24
2018-09-14T15:29:39.747Z,52.18
2018-09-14T15:32:08.763Z,54.13
2018-09-14T15:34:37.734Z,54.85
2018-09-14T15:37:07.591Z,54.16
2018-09-14T15:39:36.574Z,54.17
2018-09-14T15:42:05.553Z,55.67
2018-09-14T15:44:34.539Z,56.47
2018-09-14T15:47:03.615Z,59.67
2018-09-14T15:49:32.571Z,61.32
2018-09-14T15:52:02.416Z,60.91
2018-09-14T15:54:31.391Z,60.24
2018-09-14T15:57:00.374Z,61.19
2018-09-14T15:59:29.353Z,60.80
2018-09-14T16:01:58.326Z,61.79
2018-09-14T16:04:27.389Z,62.21
2018-09-14T16:06:56.487Z,62.74
2018-09-14T16:09:25.494Z,62.85
2018-09-14T16:11:54.489Z,63.02
2018-09-14T16:14:23.458Z,63.65
2018-09-14T16:16:52.494Z,66.56
2018-09-14T16:19:21.496Z,66.53
2018-09-14T16:21:50.599Z,66.36
2018-09-14T16:24:19.591Z,66.51
2018-09-14T16:26:48.570Z,66.77
2018-09-14T16:29:17.551Z,66.94
2018-09-14T16:31:46.600Z,66.47
2018-09-14T16:34:15.508Z,66.65
2018-09-14T16:36:44.478Z,66.55
2018-09-14T16:39:13.607Z,65.84
2018-09-14T16:41:42.574Z,65.39
2018-09-14T16:44:11.572Z,66.05
2018-09-14T16:46:40.547Z,67.15
2018-09-14T16:49:09.758Z,67.87
2018-09-14T16:51:38.793Z,68.64
2018-09-14T16:54:07.722Z,68.67
2018-09-14T16:56:36.686Z,69.27
2018-09-14T16:59:05.763Z,69.32
2018-09-14T17:01:34.756Z,69.99
2018-09-14T17:04:03.734Z,69.80
2018-09-14T17:06:32.715Z,69.99
2018-09-14T17:09:01.794Z,69.67
2018-09-14T17:11:30.764Z,69.95
2018-09-14T17:13:59.755Z,70.62
2018-09-14T17:16:28.726Z,70.80
2018-09-14T17:18:57.750Z,71.58
2018-09-14T17:21:26.781Z,71.22
2018-09-14T17:23:55.711Z,71.63
2018-09-14T17:26:24.683Z,71.57
2018-09-14T17:28:53.727Z,72.32
2018-09-14T17:31:22.703Z,72.75
2018-09-14T17:33:51.687Z,72.78
2018-09-14T17:36:20.658Z,72.96
2018-09-14T17:38:49.643Z,72.89
2018-09-14T17:41:18.760Z,73.43
2018-09-14T17:43:47.795Z,73.49
2018-09-14T17:46:16.870Z,73.69
2018-09-14T17:48:45.874Z,73.71
2018-09-14T17:51:14.863Z,73.48
2018-09-14T17:53:43.854Z,74.01
2018-09-14T17:56:12.835Z,73.41
2018-09-14T17:58:41.814Z,73.58
2018-09-14T18:01:10.797Z,73.54
2018-09-14T18:03:39.859Z,73.26
2018-09-14T18:06:08.875Z,73.31
2018-09-14T18:08:37.849Z,73.53
2018-09-14T18:11:06.923Z,73.64
2018-09-14T18:13:35.906Z,73.08
2018-09-14T18:16:04.870Z,74.20
2018-09-14T18:18:33.986Z,73.94
2018-09-14T18:21:02.907Z,73.79
2018-09-14T18:23:32.002Z,73.33
2018-09-14T18:26:01.190Z,73.76
2018-09-14T18:28:30.168Z,73.72
2018-09-14T18:30:59.134Z,74.00
2018-09-14T18:33:28.119Z,74.46
2018-09-14T18:35:57.114Z,75.01
2018-09-14T18:38:26.050Z,74.92
2018-09-14T18:40:55.261Z,75.01
2018-09-14T18:43:24.250Z,74.10
2018-09-14T18:45:53.234Z,74.16
2018-09-14T18:48:22.239Z,74.54
2018-09-14T18:50:51.229Z,74.19
2018-09-14T18:53:20.210Z,74.64
2018-09-14T18:55:49.187Z,74.83
2018-09-14T18:58:18.222Z,74.54
2018-09-14T19:00:47.195Z,74.62
2018-09-14T19:03:16.219Z,75.03
2018-09-14T19:05:45.209Z,74.85
2018-09-14T19:08:14.225Z,74.20
2018-09-14T19:10:43.476Z,74.65
2018-09-14T19:13:12.434Z,74.67
2018-09-14T19:15:41.464Z,75.37
2018-09-14T19:18:10.401Z,74.63
2018-09-14T19:20:39.374Z,75.75
2018-09-14T19:23:08.459Z,73.79
2018-09-14T19:25:37.450Z,74.40
2018-09-14T19:28:06.426Z,72.26
2018-09-14T19:30:35.406Z,73.36
2018-09-14T19:33:04.438Z,71.90
2018-09-14T19:35:33.427Z,73.88
2018-09-14T19:38:02.452Z,73.67
2018-09-14T19:40:31.447Z,73.19
2018-09-14T19:43:00.422Z,73.50
2018-09-14T19:45:29.402Z,74.12
2018-09-14T19:47:58.402Z,73.80
2018-09-14T19:50:27.379Z,74.63
2018-09-14T19:52:56.371Z,74.81
2018-09-14T19:55:25.369Z,75.05
2018-09-14T19:57:54.375Z,74.99
2018-09-14T20:00:23.351Z,75.50
2018-09-14T20:02:52.358Z,75.59
2018-09-14T20:05:21.359Z,75.64
2018-09-14T20:07:50.350Z,75.64
2018-09-14T20:10:19.363Z,75.17
2018-09-14T20:12:48.402Z,75.68
2018-09-14T20:15:17.394Z,75.47
2018-09-14T20:17:46.441Z,76.06
2018-09-14T20:20:15.435Z,76.24
2018-09-14T20:22:44.419Z,77.08
2018-09-14T20:25:13.415Z,77.63
2018-09-14T20:27:42.396Z,77.64
2018-09-14T20:30:11.419Z,78.11
2018-09-14T20:32:40.394Z,78.13
2018-09-14T20:35:09.482Z,78.17
2018-09-14T20:37:38.413Z,78.19
2018-09-14T20:40:07.398Z,78.49
2018-09-14T20:42:36.366Z,78.51
2018-09-14T20:45:05.412Z,78.75
2018-09-14T20:47:34.398Z,78.52
2018-09-14T20:50:03.388Z,78.59
2018-09-14T20:52:32.563Z,78.95
2018-09-14T20:55:01.570Z,78.62
2018-09-14T20:57:36.915Z,78.64
2018-09-14T21:00:05.918Z,79.06
2018-09-14T21:02:34.911Z,79.25
2018-09-14T21:05:03.896Z,79.44
2018-09-14T21:07:32.879Z,79.25
2018-09-14T21:10:01.898Z,79.23
2018-09-14T21:12:30.903Z,79.61
2018-09-14T21:14:59.876Z,80.10
2018-09-14T21:17:28.949Z,79.96
2018-09-14T21:19:57.940Z,79.67
2018-09-14T21:22:26.953Z,79.09
2018-09-14T21:24:55.927Z,79.54
2018-09-14T21:27:24.946Z,79.66
2018-09-14T21:29:53.933Z,79.73
2018-09-14T21:32:23.031Z,79.60
2018-09-14T21:34:52.132Z,80.01
2018-09-14T21:37:21.109Z,79.58
2018-09-14T21:39:50.108Z,79.48
2018-09-14T21:42:19.097Z,79.53
2018-09-14T21:44:48.075Z,78.89
2018-09-14T21:47:17.112Z,79.06
2018-09-14T21:49:46.078Z,79.22
2018-09-14T21:52:15.078Z,79.06
2018-09-14T21:54:44.047Z,79.58
2018-09-14T21:57:13.039Z,79.55
2018-09-14T21:59:42.020Z,79.02
2018-09-14T22:02:11.022Z,78.91
2018-09-14T22:04:40.021Z,79.04
2018-09-14T22:07:09.344Z,78.50
2018-09-14T22:09:38.311Z,78.71
2018-09-14T22:12:07.314Z,78.05
2018-09-14T22:14:36.294Z,78.44
2018-09-14T22:17:05.286Z,78.69
2018-09-14T22:19:34.258Z,78.23
2018-09-14T22:22:03.298Z,77.92
2018-09-14T22:24:32.235Z,77.50
2018-09-14T22:27:01.229Z,77.48
2018-09-14T22:29:30.198Z,77.70
2018-09-14T22:31:59.191Z,77.90
2018-09-14T22:34:28.171Z,77.39
2018-09-14T22:36:57.174Z,76.18
2018-09-14T22:39:26.142Z,76.34
2018-09-14T22:41:55.131Z,77.02
2018-09-14T22:44:24.145Z,76.74
2018-09-14T22:46:53.143Z,75.92
2018-09-14T22:49:22.115Z,75.61
2018-09-14T22:51:51.111Z,75.09
2018-09-14T22:54:20.094Z,76.02
2018-09-14T22:56:49.082Z,74.67
2018-09-14T22:59:18.056Z,75.26
2018-09-14T23:01:51.354Z,75.76
2018-09-14T23:04:20.357Z,76.19
2018-09-14T23:06:50.329Z,76.06
2018-09-14T23:09:19.398Z,76.27
2018-09-14T23:11:48.374Z,75.89
2018-09-14T23:14:17.362Z,75.68
2018-09-14T23:16:46.342Z,77.08
2018-09-14T23:19:15.317Z,76.83
2018-09-14T23:21:44.301Z,75.92
2018-09-14T23:24:13.372Z,75.81
2018-09-14T23:26:42.357Z,76.06
2018-09-14T23:29:11.326Z,76.05
2018-09-14T23:31:40.298Z,75.84
2018-09-14T23:34:09.282Z,75.68
2018-09-14T23:36:38.250Z,75.82
2018-09-14T23:39:08.761Z,75.95
2018-09-14T23:41:37.867Z,75.48
2018-09-14T23:44:06.865Z,75.35
2018-09-14T23:46:35.847Z,75.47
2018-09-14T23:49:04.840Z,75.92
2018-09-14T23:51:33.910Z,75.65
2018-09-14T23:54:02.907Z,75.63
2018-09-14T23:56:31.882Z,74.63
2018-09-14T23:59:01.016Z,74.56
